Time;durP1;ratioP1;P1;durP2;ratioP2;P2;SDS_P1;SDS_P2;PMS_P1;PMS_P2;Temp;Humidity;BMP_temperature;BMP_pressure;BME280_temperature;BME280_humidity;BME280_pressure;Samples;Min_cycle;Max_cycle;Signal;HPM_P1;HPM_P2
2021/12/12 00:01:16;;;;;;;0.20;0.20;;;;;;;18.94;40.78;101792.41;5118792;27;20040;-38
2021/12/12 00:03:48;;;;;;;0.25;0.25;;;;;;;18.94;41.04;101786.88;5119970;27;20054;-38
2021/12/12 00:06:19;;;;;;;0.30;0.30;;;;;;;18.95;40.73;101794.06;5121289;27;20277;-39
2021/12/12 00:08:57;;;;;;;0.20;0.20;;;;;;;18.95;40.95;101793.22;5123565;27;20061;-39
2021/12/12 00:11:24;;;;;;;;;;;;;;;18.95;40.95;101796.81;5126624;27;20051;-38
2021/12/12 00:13:56;;;;;;;0.20;0.20;;;;;;;18.95;40.69;101796.00;5123957;27;19927;-38
2021/12/12 00:16:21;;;;;;;0.20;0.20;;;;;;;18.94;40.89;101786.88;5124259;27;20054;-39
2021/12/12 00:18:53;;;;;;;0.20;0.20;;;;;;;18.95;40.97;101796.81;5122299;27;20039;-39
2021/12/12 00:21:21;;;;;;;0.20;0.20;;;;;;;18.95;40.82;101801.50;5105837;27;20050;-39
2021/12/12 00:23:47;;;;;;;0.20;0.20;;;;;;;18.95;40.79;101805.09;5122836;27;20099;-39
2021/12/12 00:26:13;;;;;;;0.30;0.30;;;;;;;18.95;40.73;101804.28;5124320;27;20047;-38
2021/12/12 00:28:40;;;;;;;0.30;0.30;;;;;;;18.95;40.82;101801.50;5123255;27;20474;-39
2021/12/12 00:31:10;;;;;;;0.20;0.20;;;;;;;18.95;40.76;101801.50;5118701;27;20035;-35
2021/12/12 00:33:41;;;;;;;0.20;0.20;;;;;;;18.98;40.70;101814.81;5103723;27;20434;-36
2021/12/12 00:36:07;;;;;;;0.20;0.20;;;;;;;18.94;40.89;101811.72;5119933;27;20371;-37
2021/12/12 00:38:35;;;;;;;0.28;0.28;;;;;;;18.95;40.94;101799.59;5125080;27;20050;-38
2021/12/12 00:41:06;;;;;;;0.20;0.20;;;;;;;18.95;40.89;101799.59;5120303;27;20730;-35
2021/12/12 00:43:38;;;;;;;0.20;0.20;;;;;;;18.96;40.88;101795.75;5123084;27;20043;-38
2021/12/12 00:46:07;;;;;;;0.20;0.20;;;;;;;18.95;40.90;101796.00;5124282;27;20057;-37
2021/12/12 00:48:34;;;;;;;0.20;0.20;;;;;;;18.94;40.79;101786.88;5126042;27;20047;-37
2021/12/12 00:51:02;;;;;;;0.20;0.20;;;;;;;18.95;40.80;101784.94;5121282;27;20373;-37
2021/12/12 00:53:27;;;;;;;0.20;0.20;;;;;;;18.94;40.81;101789.63;5117567;27;20475;-37
2021/12/12 00:55:54;;;;;;;0.20;0.20;;;;;;;18.95;40.95;101784.94;5115825;27;20051;-37
2021/12/12 00:58:21;;;;;;;0.20;0.20;;;;;;;18.94;41.10;101781.34;5112930;27;20043;-37
2021/12/12 01:00:53;;;;;;;0.20;0.20;;;;;;;18.94;40.86;101783.28;5115013;27;20039;-37
2021/12/12 01:03:23;;;;;;;0.20;0.20;;;;;;;18.94;40.99;101766.72;5095688;27;20462;-37
2021/12/12 01:05:51;;;;;;;0.20;0.20;;;;;;;18.94;40.97;101766.72;5100930;27;20034;-37
2021/12/12 01:08:16;;;;;;;0.20;0.20;;;;;;;18.94;40.78;101762.03;5125962;27;20043;-39
2021/12/12 01:10:47;;;;;;;0.20;0.20;;;;;;;18.94;41.02;101758.44;5123943;27;20170;-39
2021/12/12 01:13:13;;;;;;;0.20;0.20;;;;;;;18.94;40.93;101770.31;5118405;27;20077;-36
2021/12/12 01:15:50;;;;;;;0.20;0.20;;;;;;;18.94;40.69;101770.31;5124656;27;20054;-38
2021/12/12 01:18:21;;;;;;;0.20;0.20;;;;;;;18.95;40.73;101765.63;5123004;27;20379;-39
2021/12/12 01:20:53;;;;;;;0.20;0.20;;;;;;;18.95;40.96;101760.09;5118972;27;20084;-38
2021/12/12 01:23:25;;;;;;;0.20;0.20;;;;;;;18.94;40.86;101767.56;5116150;27;20052;-39
2021/12/12 01:25:53;;;;;;;0.20;0.20;;;;;;;18.95;40.81;101765.63;5127126;27;20504;-38
2021/12/12 01:28:23;;;;;;;0.20;0.20;;;;;;;18.95;41.04;101760.09;5122379;27;20047;-38
2021/12/12 01:30:51;;;;;;;0.20;0.20;;;;;;;18.94;40.88;101762.03;5111843;27;20034;-39
2021/12/12 01:33:56;;;;;;;0.20;0.20;;;;;;;18.94;40.79;101762.03;5103522;27;20050;-38
2021/12/12 01:36:22;;;;;;;0.20;0.20;;;;;;;18.94;40.91;101767.56;5110290;27;20084;-38
2021/12/12 01:38:52;;;;;;;0.20;0.20;;;;;;;18.94;40.98;101766.72;5123592;27;20109;-38
2021/12/12 01:41:31;;;;;;;0.20;0.20;;;;;;;18.94;40.96;101763.97;5124874;27;20035;-38
2021/12/12 01:44:02;;;;;;;0.20;0.20;;;;;;;18.94;40.96;101766.72;5113407;27;20045;-38
2021/12/12 01:46:34;;;;;;;0.20;0.20;;;;;;;18.94;41.06;101763.97;5128686;27;20096;-39
2021/12/12 01:49:16;;;;;;;0.20;0.20;;;;;;;18.94;40.96;101759.28;5128599;27;20044;-37
2021/12/12 01:51:43;;;;;;;0.20;0.20;;;;;;;18.94;40.94;101764.81;5121475;27;20051;-36
2021/12/12 01:54:09;;;;;;;0.28;0.28;;;;;;;18.95;40.84;101754.59;5117841;27;20050;-37
2021/12/12 01:56:42;;;;;;;0.20;0.20;;;;;;;18.93;40.94;101749.34;5120180;27;20047;-37
2021/12/12 01:59:08;;;;;;;0.20;0.20;;;;;;;18.96;40.86;101748.81;5123624;27;20040;-38
2021/12/12 02:01:39;;;;;;;0.20;0.20;;;;;;;18.95;41.01;101749.06;5117521;27;20255;-37
2021/12/12 02:04:09;;;;;;;0.20;0.20;;;;;;;18.94;40.86;101748.25;5118805;27;20097;-35
2021/12/12 02:06:35;;;;;;;0.20;0.20;;;;;;;18.95;40.95;101743.53;5118743;27;20490;-37
2021/12/12 02:09:02;;;;;;;0.20;0.20;;;;;;;18.94;40.99;101741.88;5121006;27;20141;-37
2021/12/12 02:11:30;;;;;;;0.30;0.30;;;;;;;18.95;41.10;101735.25;5124567;27;20430;-37
2021/12/12 02:13:57;;;;;;;;;;;;;;;18.94;40.82;101734.44;5121399;27;20537;-37
2021/12/12 02:16:24;;;;;;;0.20;0.20;;;;;;;18.93;40.94;101738.28;5123038;27;20354;-37
2021/12/12 02:18:53;;;;;;;0.20;0.20;;;;;;;18.94;41.13;101745.47;5119906;27;20541;-37
2021/12/12 02:21:28;;;;;;;0.20;0.20;;;;;;;18.93;40.94;101745.75;5123860;27;20428;-36
2021/12/12 02:35:24;;;;;;;0.20;0.20;;;;;;;18.93;40.90;101738.28;5128260;27;20480;-36
2021/12/12 02:37:52;;;;;;;0.20;0.20;;;;;;;18.92;40.78;101735.81;5148141;27;20047;-40
2021/12/12 02:40:24;;;;;;;0.20;0.20;;;;;;;18.93;40.83;101741.06;5124034;27;20043;-37
2021/12/12 02:42:49;;;;;;;0.20;0.20;;;;;;;18.93;40.86;101734.72;5122204;27;20059;-38
2021/12/12 02:45:17;;;;;;;0.20;0.20;;;;;;;18.93;40.81;101735.53;5143950;27;20046;-37
2021/12/12 02:47:45;;;;;;;0.20;0.20;;;;;;;18.93;40.99;101732.78;5141937;27;20040;-35
2021/12/12 02:50:17;;;;;;;0.20;0.20;;;;;;;18.94;40.91;101733.59;5110536;27;20118;-37
2021/12/12 02:52:46;;;;;;;0.30;0.30;;;;;;;18.93;41.13;101732.78;5127488;27;20126;-38
2021/12/12 02:55:17;;;;;;;0.20;0.20;;;;;;;18.93;40.99;101738.28;5128055;27;20046;-38
2021/12/12 02:57:42;;;;;;;0.20;0.20;;;;;;;18.94;41.10;101739.13;5122633;27;20116;-38
2021/12/12 03:00:12;;;;;;;0.20;0.20;;;;;;;18.94;41.10;101736.38;5146064;27;20542;-38
2021/12/12 03:02:45;;;;;;;0.20;0.20;;;;;;;18.93;41.04;101730.00;5142106;27;20200;-38
2021/12/12 03:05:13;;;;;;;0.20;0.20;;;;;;;18.92;41.09;101728.34;5139782;27;20046;-37
2021/12/12 03:07:39;;;;;;;0.20;0.20;;;;;;;18.93;41.09;101731.94;5137242;27;20061;-38
2021/12/12 03:10:08;;;;;;;0.20;0.20;;;;;;;18.93;41.00;101731.94;5145468;27;20046;-37
2021/12/12 03:12:35;;;;;;;0.30;0.30;;;;;;;18.93;41.11;101727.25;5143997;27;20047;-38
2021/12/12 03:15:26;;;;;;;0.20;0.20;;;;;;;18.94;40.93;101730.84;5148010;27;20528;-38
2021/12/12 03:17:54;;;;;;;0.20;0.20;;;;;;;18.93;41.19;101730.00;5130288;27;20050;-38
2021/12/12 03:20:42;;;;;;;0.20;0.20;;;;;;;18.92;40.96;101728.34;5123514;27;20039;-37
2021/12/12 03:23:28;;;;;;;0.20;0.20;;;;;;;18.93;41.06;101731.94;5131133;27;20040;-39
2021/12/12 03:25:59;;;;;;;0.20;0.20;;;;;;;18.93;40.94;101726.44;5149988;27;20039;-39
2021/12/12 03:28:27;;;;;;;0.20;0.20;;;;;;;18.94;41.10;101731.69;5144702;27;20047;-39
2021/12/12 03:30:54;;;;;;;0.20;0.20;;;;;;;18.93;41.02;101724.50;5146901;27;20053;-39
2021/12/12 03:33:21;;;;;;;0.20;0.20;;;;;;;18.93;40.92;101724.50;5144443;27;20457;-38
2021/12/12 03:35:50;;;;;;;0.20;0.20;;;;;;;18.92;41.03;101725.59;5140045;27;20378;-38
2021/12/12 03:38:16;;;;;;;0.20;0.20;;;;;;;18.93;41.06;101729.19;5114145;27;20090;-38
2021/12/12 03:40:44;;;;;;;0.20;0.20;;;;;;;18.93;41.15;101735.53;5130255;27;20047;-39
2021/12/12 03:43:10;;;;;;;0.20;0.20;;;;;;;18.93;41.00;101729.19;5128101;27;20095;-39
2021/12/12 03:45:37;;;;;;;0.20;0.20;;;;;;;18.91;41.06;101737.75;5114297;28;20495;-38
2021/12/12 03:48:08;;;;;;;0.20;0.20;;;;;;;18.91;40.84;101729.47;5130640;27;20045;-39
2021/12/12 03:50:35;;;;;;;0.20;0.20;;;;;;;18.93;40.92;101731.94;5136614;27;20057;-38
2021/12/12 03:53:01;;;;;;;0.20;0.20;;;;;;;18.92;40.83;101722.84;5118703;27;20046;-38
2021/12/12 03:55:28;;;;;;;0.20;0.20;;;;;;;18.91;40.91;101729.47;5093886;27;20526;-36
2021/12/12 03:57:53;;;;;;;0.20;0.20;;;;;;;18.90;40.97;101725.00;5108639;27;20048;-38
2021/12/12 04:00:24;;;;;;;0.20;0.20;;;;;;;18.91;40.95;101723.06;5127619;27;20105;-36
2021/12/12 04:02:50;;;;;;;0.20;0.20;;;;;;;18.92;40.93;101727.53;5135044;27;20071;-37
2021/12/12 04:05:16;;;;;;;0.22;0.22;;;;;;;18.93;40.97;101729.19;5127082;27;20051;-37
2021/12/12 04:07:42;;;;;;;0.20;0.20;;;;;;;18.91;41.10;101720.31;5129652;27;20458;-38
2021/12/12 04:10:12;;;;;;;0.20;0.20;;;;;;;18.93;41.04;101723.66;5131381;27;20130;-38
2021/12/12 04:12:38;;;;;;;0.20;0.20;;;;;;;18.91;40.87;101726.69;5131046;27;20071;-38
2021/12/12 04:15:04;;;;;;;0.20;0.20;;;;;;;18.92;41.14;101722.84;5128701;27;20047;-38
2021/12/12 04:17:31;;;;;;;0.20;0.20;;;;;;;18.91;40.88;101729.47;5131375;27;20108;-37
2021/12/12 04:20:00;;;;;;;0.20;0.20;;;;;;;18.91;41.18;101726.69;5127910;27;20039;-37
2021/12/12 04:22:26;;;;;;;0.20;0.20;;;;;;;18.91;41.23;101734.97;5108440;27;20043;-37
2021/12/12 04:24:53;;;;;;;0.20;0.20;;;;;;;18.92;41.17;101731.13;5126221;27;20046;-37
2021/12/12 04:27:20;;;;;;;0.20;0.20;;;;;;;18.91;41.00;101723.94;5108173;27;20044;-37
2021/12/12 04:29:49;;;;;;;0.20;0.20;;;;;;;18.91;40.86;101714.78;5129173;27;20043;-37
2021/12/12 04:32:21;;;;;;;0.20;0.20;;;;;;;18.91;40.96;101721.19;5092825;27;20042;-37
2021/12/12 04:34:55;;;;;;;0.25;0.25;;;;;;;18.91;40.98;101723.06;5089540;27;20075;-37
2021/12/12 04:37:22;;;;;;;0.20;0.20;;;;;;;18.91;40.92;101720.31;5091686;28;20483;-36
2021/12/12 04:39:52;;;;;;;0.20;0.20;;;;;;;18.91;40.92;101728.59;5128388;27;20053;-37
2021/12/12 04:42:21;;;;;;;0.20;0.20;;;;;;;18.90;41.08;101727.75;5125011;27;20035;-40
2021/12/12 04:44:50;;;;;;;0.20;0.20;;;;;;;18.92;40.98;101724.75;5129263;27;20047;-37
2021/12/12 04:50:33;;;;;;;0.20;0.20;;;;;;;18.90;41.09;101716.72;5104302;27;20637;-37
2021/12/12 04:53:17;;;;;;;0.20;0.20;;;;;;;18.90;41.18;101716.72;5126366;27;20047;-40
2021/12/12 04:55:56;;;;;;;0.20;0.20;;;;;;;18.91;41.10;101714.78;5125547;27;20059;-36
2021/12/12 04:58:31;;;;;;;0.20;0.20;;;;;;;18.90;41.05;101711.19;5123271;27;20196;-37
2021/12/12 05:01:02;;;;;;;0.20;0.20;;;;;;;18.91;41.01;101714.78;5093693;28;20047;-37
2021/12/12 05:03:36;;;;;;;0.20;0.20;;;;;;;18.91;40.88;101717.56;5104566;27;20059;-36
2021/12/12 05:06:11;;;;;;;0.20;0.20;;;;;;;18.90;41.17;101713.97;5126948;27;20134;-37
2021/12/12 05:08:44;;;;;;;0.20;0.20;;;;;;;18.91;41.10;101720.31;5127315;27;20072;-36
2021/12/12 05:11:17;;;;;;;0.20;0.20;;;;;;;18.90;40.92;101713.13;5105898;27;20038;-37
2021/12/12 05:13:50;;;;;;;0.30;0.30;;;;;;;18.90;41.01;101713.97;5125687;27;20043;-36
2021/12/12 05:16:23;;;;;;;0.30;0.30;;;;;;;18.90;41.00;101708.44;5125193;27;20057;-36
2021/12/12 05:18:52;;;;;;;0.20;0.20;;;;;;;18.91;41.12;101710.13;5123950;27;20047;-37
2021/12/12 05:21:24;;;;;;;0.30;0.30;;;;;;;18.89;41.23;101709.53;5109696;27;20440;-37
2021/12/12 05:23:51;;;;;;;0.30;0.30;;;;;;;18.89;41.18;101704.03;5091636;28;20047;-37
2021/12/12 05:26:19;;;;;;;0.20;0.20;;;;;;;18.90;41.15;101702.94;5129473;27;20073;-40
2021/12/12 05:28:49;;;;;;;0.20;0.20;;;;;;;18.90;41.16;101710.38;5123456;27;20051;-37
2021/12/12 05:31:17;;;;;;;0.30;0.30;;;;;;;18.89;41.08;101714.25;5108332;28;20040;-37
2021/12/12 05:33:43;;;;;;;0.20;0.20;;;;;;;18.88;41.01;101716.16;5106223;28;20095;-38
2021/12/12 05:36:10;;;;;;;0.20;0.20;;;;;;;18.88;41.16;101716.16;5124290;27;20069;-37
2021/12/12 05:38:37;;;;;;;0.30;0.30;;;;;;;18.88;41.12;101718.09;5106221;28;20065;-39
2021/12/12 05:41:03;;;;;;;0.20;0.20;;;;;;;18.88;41.13;101712.56;5108121;27;20092;-37
2021/12/12 05:43:29;;;;;;;0.20;0.20;;;;;;;18.88;41.15;101720.84;5123934;27;20042;-37
2021/12/12 05:45:55;;;;;;;0.20;0.20;;;;;;;18.89;41.27;101717.00;5125703;27;20042;-35
2021/12/12 05:48:21;;;;;;;0.20;0.20;;;;;;;18.88;41.07;101723.63;5126508;27;20039;-37
2021/12/12 05:50:48;;;;;;;0.20;0.20;;;;;;;18.88;41.03;101723.63;5121132;27;20043;-37
2021/12/12 05:53:14;;;;;;;0.20;0.20;;;;;;;18.88;41.17;101713.41;5122876;27;20043;-37
2021/12/12 05:55:41;;;;;;;0.30;0.30;;;;;;;18.88;41.16;101716.16;5106525;27;20072;-38
2021/12/12 05:58:10;;;;;;;0.20;0.20;;;;;;;18.89;41.14;101711.47;5104491;28;20041;-37
2021/12/12 06:00:40;;;;;;;0.30;0.30;;;;;;;18.88;41.08;101712.56;5125237;27;20053;-37
2021/12/12 06:03:07;;;;;;;0.30;0.30;;;;;;;18.88;41.03;101710.66;5124998;27;20039;-37
2021/12/12 06:05:33;;;;;;;0.20;0.20;;;;;;;18.88;41.15;101709.81;5123927;27;20422;-37
2021/12/12 06:07:59;;;;;;;0.20;0.20;;;;;;;18.88;41.24;101707.88;5106973;27;20051;-37
2021/12/12 06:10:26;;;;;;;0.20;0.20;;;;;;;18.89;41.02;101708.72;5105775;28;20051;-42
2021/12/12 06:12:53;;;;;;;0.20;0.20;;;;;;;18.88;41.06;101709.81;5105245;27;20035;-37
2021/12/12 06:15:22;;;;;;;0.30;0.30;;;;;;;18.88;41.08;101710.66;5105240;28;20111;-37
2021/12/12 06:17:49;;;;;;;0.20;0.20;;;;;;;18.89;41.18;101717.00;5092262;27;20446;-37
2021/12/12 06:20:15;;;;;;;0.30;0.30;;;;;;;18.88;41.15;101726.38;5125719;27;20049;-37
2021/12/12 06:22:41;;;;;;;0.20;0.20;;;;;;;18.88;41.26;101721.69;5106276;27;20622;-38
2021/12/12 06:25:08;;;;;;;0.20;0.20;;;;;;;18.88;41.20;101729.13;5105598;27;20066;-37
2021/12/12 06:27:34;;;;;;;0.20;0.20;;;;;;;18.88;41.09;101731.91;5125874;27;20510;-38
2021/12/12 06:30:00;;;;;;;0.20;0.20;;;;;;;18.87;40.91;101739.34;5125281;27;20035;-36
2021/12/12 06:32:25;;;;;;;0.22;0.22;;;;;;;18.87;41.21;101731.06;5125301;27;20058;-37
2021/12/12 06:34:55;;;;;;;0.20;0.20;;;;;;;18.87;41.32;101733.81;5121003;27;20477;-38
2021/12/12 06:37:21;;;;;;;0.20;0.20;;;;;;;18.88;41.19;101731.91;5104401;27;20039;-37
2021/12/12 06:39:48;;;;;;;0.20;0.20;;;;;;;18.87;41.33;101739.34;5122749;27;20067;-39
2021/12/12 06:42:14;;;;;;;0.20;0.20;;;;;;;18.88;41.21;101732.72;5104234;27;20488;-38
2021/12/12 06:44:41;;;;;;;0.20;0.20;;;;;;;18.88;40.94;101731.91;5108768;27;20086;-38
2021/12/12 06:47:08;;;;;;;0.20;0.20;;;;;;;18.88;41.23;101718.09;5105719;27;20092;-38
2021/12/12 06:49:35;;;;;;;0.20;0.20;;;;;;;18.87;41.07;101719.16;5120629;27;20036;-37
2021/12/12 06:52:01;;;;;;;0.20;0.20;;;;;;;18.86;41.07;101721.09;5105384;27;20091;-38
2021/12/12 06:54:28;;;;;;;0.20;0.20;;;;;;;18.86;41.16;101721.09;5121749;27;20062;-39
2021/12/12 06:56:57;;;;;;;0.30;0.30;;;;;;;18.86;41.20;101723.84;5121957;27;20107;-37
2021/12/12 06:59:24;;;;;;;0.30;0.30;;;;;;;18.86;41.03;101729.38;5121488;27;20049;-38
2021/12/12 07:01:51;;;;;;;0.20;0.20;;;;;;;18.86;41.03;101726.63;5126177;27;20046;-39
2021/12/12 07:04:19;;;;;;;0.20;0.20;;;;;;;18.86;41.02;101732.13;5119703;27;20104;-38
2021/12/12 07:06:47;;;;;;;0.20;0.20;;;;;;;18.86;41.26;101740.41;5124676;27;20047;-37
2021/12/12 07:09:13;;;;;;;0.20;0.20;;;;;;;18.86;41.21;101742.34;5124054;27;20401;-38
2021/12/12 07:11:41;;;;;;;0.20;0.20;;;;;;;18.87;41.28;101742.09;5121700;27;20138;-37
2021/12/12 07:14:09;;;;;;;0.20;0.20;;;;;;;18.86;41.10;101734.06;5114248;27;20051;-36
2021/12/12 07:16:36;;;;;;;0.20;0.20;;;;;;;18.85;41.01;101741.50;5110337;27;20047;-37
2021/12/12 07:19:02;;;;;;;0.20;0.20;;;;;;;18.85;41.10;101727.72;5125575;27;20046;-37
2021/12/12 07:21:30;;;;;;;0.20;0.20;;;;;;;18.85;41.26;101722.19;5106978;28;20043;-37
2021/12/12 07:23:58;;;;;;;0.20;0.20;;;;;;;18.85;41.16;101724.97;5127695;27;20054;-37
2021/12/12 07:26:25;;;;;;;0.20;0.20;;;;;;;18.85;41.03;101724.13;5130140;27;20049;-38
2021/12/12 07:28:52;;;;;;;0.20;0.20;;;;;;;18.85;41.26;101722.19;5125643;27;20042;-38
2021/12/12 07:31:21;;;;;;;0.20;0.20;;;;;;;18.85;41.01;101732.41;5125931;27;20051;-37
2021/12/12 07:33:49;;;;;;;0.30;0.30;;;;;;;18.85;41.05;101736.00;5097975;27;20042;-35
2021/12/12 07:36:16;;;;;;;0.20;0.20;;;;;;;18.86;41.08;101734.06;5125088;27;20053;-38
2021/12/12 07:38:45;;;;;;;0.30;0.30;;;;;;;18.85;41.19;101733.25;5128009;27;20095;-38
2021/12/12 07:41:12;;;;;;;0.20;0.20;;;;;;;18.86;41.22;101731.31;5125297;27;20126;-38
2021/12/12 07:43:38;;;;;;;0.30;0.30;;;;;;;18.85;41.08;101730.47;5124554;27;20051;-39
2021/12/12 07:46:05;;;;;;;0.30;0.30;;;;;;;18.85;41.22;101733.25;5124451;27;20039;-38
2021/12/12 07:48:32;;;;;;;0.20;0.20;;;;;;;18.86;41.36;101742.34;5128333;27;20436;-38
2021/12/12 07:50:58;;;;;;;0.20;0.20;;;;;;;18.86;41.37;101731.31;5126304;27;20043;-38
2021/12/12 07:53:26;;;;;;;0.20;0.20;;;;;;;18.85;41.22;101733.25;5127223;27;20047;-38
2021/12/12 07:55:53;;;;;;;0.20;0.20;;;;;;;18.84;41.28;101731.56;5129276;27;20055;-37
2021/12/12 07:58:19;;;;;;;0.30;0.30;;;;;;;18.84;41.26;101741.78;5124513;27;20058;-37
2021/12/12 08:00:47;;;;;;;0.30;0.30;;;;;;;18.84;41.31;101745.38;5124333;27;20043;-38
2021/12/12 08:03:14;;;;;;;0.20;0.20;;;;;;;18.84;41.09;101748.13;5125826;27;20051;-37
2021/12/12 08:05:41;;;;;;;0.20;0.20;;;;;;;18.85;41.10;101746.22;5106536;27;20375;-38
2021/12/12 08:08:10;;;;;;;0.30;0.30;;;;;;;18.83;41.11;101749.22;5128013;27;20103;-36
2021/12/12 08:10:37;;;;;;;0.20;0.20;;;;;;;18.84;41.28;101741.78;5107334;27;20405;-38
2021/12/12 08:13:04;;;;;;;0.20;0.20;;;;;;;18.84;41.29;101741.78;5126568;27;20039;-38
2021/12/12 08:15:30;;;;;;;0.20;0.20;;;;;;;18.84;41.35;101745.38;5124934;27;20061;-38
2021/12/12 08:17:56;;;;;;;0.20;0.20;;;;;;;18.84;41.32;101748.13;5107876;28;20199;-38
2021/12/12 08:20:22;;;;;;;0.20;0.20;;;;;;;18.83;41.20;101756.69;5107674;28;20039;-39
2021/12/12 08:22:49;;;;;;;0.20;0.20;;;;;;;18.84;41.23;101759.19;5093275;27;20104;-39
2021/12/12 08:25:16;;;;;;;0.30;0.30;;;;;;;18.83;41.19;101756.69;5122484;27;20074;-38
2021/12/12 08:27:42;;;;;;;0.20;0.20;;;;;;;18.83;41.07;101765.78;5127203;27;20054;-38
2021/12/12 08:30:11;;;;;;;0.20;0.20;;;;;;;18.83;41.06;101763.03;5123597;27;20039;-38
2021/12/12 08:32:37;;;;;;;0.30;0.30;;;;;;;18.84;41.17;101763.88;5127464;27;20095;-38
2021/12/12 08:35:09;;;;;;;0.20;0.20;;;;;;;18.83;41.15;101768.56;5123160;27;20190;-39
2021/12/12 08:37:36;;;;;;;0.20;0.20;;;;;;;18.83;41.35;101765.78;5108464;27;20046;-38
2021/12/12 08:40:05;;;;;;;0.22;0.22;;;;;;;18.84;41.30;101772.97;5106950;27;20393;-38
2021/12/12 08:42:30;;;;;;;;;;;;;;;18.84;41.12;101766.63;5105135;27;20078;-39
2021/12/12 08:44:57;;;;;;;0.30;0.30;;;;;;;18.82;41.22;101777.91;5123639;27;19935;-38
2021/12/12 08:47:24;;;;;;;0.20;0.20;;;;;;;18.82;41.24;101772.38;5107271;27;20051;-38
2021/12/12 08:49:50;;;;;;;0.30;0.30;;;;;;;18.83;41.37;101773.25;5110312;28;20489;-39
2021/12/12 08:52:26;;;;;;;0.20;0.20;;;;;;;18.82;41.08;101777.91;5125943;27;20472;-37
2021/12/12 08:54:53;;;;;;;0.20;0.20;;;;;;;18.84;41.27;101785.94;5121443;27;20043;-41
2021/12/12 08:57:46;;;;;;;0.20;0.20;;;;;;;18.83;41.28;101798.91;5123382;27;20043;-37
2021/12/12 09:00:30;;;;;;;0.20;0.20;;;;;;;18.83;41.13;101798.91;5102355;27;20043;-38
2021/12/12 09:02:57;;;;;;;0.20;0.20;;;;;;;18.83;41.28;101798.06;5106897;28;20068;-38
2021/12/12 09:05:34;;;;;;;0.30;0.30;;;;;;;18.83;41.11;101798.06;5124402;27;20042;-38
2021/12/12 09:08:21;;;;;;;0.20;0.20;;;;;;;18.82;41.28;101797.22;5111978;27;20046;-38
2021/12/12 09:10:58;;;;;;;0.20;0.20;;;;;;;18.82;41.21;101794.47;5106817;27;20482;-38
2021/12/12 09:13:28;;;;;;;0.20;0.20;;;;;;;18.82;41.22;101790.88;5125143;27;20087;-40
2021/12/12 09:16:00;;;;;;;0.30;0.30;;;;;;;18.83;41.20;101792.56;5107981;27;20051;-39
2021/12/12 09:18:32;;;;;;;0.30;0.30;;;;;;;18.83;41.20;101787.88;5124477;27;20043;-37
2021/12/12 09:21:10;;;;;;;0.30;0.30;;;;;;;18.82;41.36;101794.47;5108181;27;20043;-37
2021/12/12 09:23:44;;;;;;;0.20;0.20;;;;;;;18.84;41.35;101791.47;5106531;27;20151;-36
2021/12/12 09:26:21;;;;;;;0.20;0.20;;;;;;;18.82;41.24;101802.75;5110571;27;20449;-37
2021/12/12 09:28:52;;;;;;;0.20;0.20;;;;;;;18.82;41.20;101799.97;5107975;27;20083;-36
2021/12/12 09:31:26;;;;;;;0.20;0.20;;;;;;;18.82;41.24;101807.44;5120865;27;20047;-37
2021/12/12 09:34:00;;;;;;;0.20;0.20;;;;;;;18.81;41.09;101809.34;5101413;27;20035;-36
2021/12/12 09:36:37;;;;;;;0.20;0.20;;;;;;;18.80;41.09;101800.25;5124148;27;20049;-37
2021/12/12 09:39:11;;;;;;;0.20;0.20;;;;;;;18.80;41.23;101803.00;5109686;27;20091;-37
2021/12/12 09:42:00;;;;;;;0.20;0.20;;;;;;;18.82;41.29;101796.38;5108642;27;20488;-37
2021/12/12 09:44:49;;;;;;;0.20;0.20;;;;;;;18.82;41.36;101807.44;5108113;28;20103;-36
2021/12/12 09:47:36;;;;;;;0.20;0.20;;;;;;;18.82;41.20;101811.00;5106766;27;20053;-37
2021/12/12 09:53:12;;;;;;;0.20;0.20;;;;;;;18.81;41.20;101817.63;5098374;27;20071;-37
2021/12/12 09:55:47;;;;;;;0.30;0.30;;;;;;;18.80;41.16;101814.03;5127546;27;20113;-37
2021/12/12 09:58:41;;;;;;;0.30;0.30;;;;;;;18.80;41.18;101807.69;5123535;27;20071;-37
2021/12/12 10:01:17;;;;;;;0.30;0.30;;;;;;;18.80;41.23;101808.53;5115181;27;20416;-37
2021/12/12 10:04:10;;;;;;;0.30;0.30;;;;;;;18.80;41.41;101805.75;5108809;28;20043;-37
2021/12/12 10:07:06;;;;;;;0.20;0.20;;;;;;;18.82;41.31;101812.94;5100888;27;20076;-37
2021/12/12 10:09:37;;;;;;;0.20;0.20;;;;;;;18.79;41.40;101812.38;5107981;27;20099;-37
2021/12/12 10:12:10;;;;;;;0.20;0.20;;;;;;;18.81;41.20;101812.13;5125397;27;20095;-37
2021/12/12 10:14:45;;;;;;;0.30;0.30;;;;;;;18.81;41.31;101806.59;5124001;27;20069;-37
2021/12/12 10:17:32;;;;;;;0.20;0.20;;;;;;;18.82;41.29;101804.66;5124005;27;20103;-37
2021/12/12 10:20:02;;;;;;;0.20;0.20;;;;;;;18.81;41.23;101803.84;5110947;27;20091;-37
2021/12/12 10:22:56;;;;;;;0.20;0.20;;;;;;;18.81;41.38;101812.13;5104433;27;20120;-38
2021/12/12 10:25:52;;;;;;;0.20;0.20;;;;;;;18.80;41.12;101810.47;5104930;27;20050;-37
2021/12/12 10:28:26;;;;;;;0.28;0.28;;;;;;;18.80;41.40;101804.94;5107974;27;20051;-37
2021/12/12 10:30:58;;;;;;;0.20;0.20;;;;;;;18.81;41.22;101809.34;5125541;27;20107;-36
2021/12/12 10:33:34;;;;;;;0.20;0.20;;;;;;;18.80;41.30;101811.28;5105871;27;20067;-37
2021/12/12 10:36:05;;;;;;;0.22;0.22;;;;;;;18.81;41.22;101809.34;5126045;27;20125;-36
2021/12/12 10:39:03;;;;;;;0.20;0.20;;;;;;;18.80;41.42;101814.03;5127315;27;20054;-37
2021/12/12 10:41:38;;;;;;;0.20;0.20;;;;;;;18.80;41.37;101810.47;5096563;27;20417;-37
2021/12/12 10:44:23;;;;;;;0.30;0.30;;;;;;;18.80;41.26;101814.03;5092719;27;20133;-36
2021/12/12 10:47:28;;;;;;;0.20;0.20;;;;;;;18.80;41.40;101822.31;5120510;27;20036;-38
2021/12/12 10:50:14;;;;;;;0.20;0.20;;;;;;;18.79;41.43;101811.56;5100065;27;20043;-37
2021/12/12 10:52:55;;;;;;;0.20;0.20;;;;;;;18.79;41.22;101815.16;5130101;27;20051;-37
2021/12/12 10:55:29;;;;;;;0.20;0.20;;;;;;;18.80;41.22;101825.09;5126215;27;20104;-38
2021/12/12 10:58:00;;;;;;;0.20;0.20;;;;;;;18.80;41.38;101825.09;5115865;27;20457;-37
2021/12/12 11:00:31;;;;;;;0.20;0.20;;;;;;;18.80;41.27;101818.72;5111522;28;20039;-39
2021/12/12 11:05:48;;;;;;;0.20;0.20;;;;;;;18.80;41.24;101819.56;5162255;27;20546;-36
2021/12/12 11:08:22;;;;;;;0.20;0.20;;;;;;;18.81;41.39;101820.41;5122069;27;20417;-37
2021/12/12 11:11:08;;;;;;;0.20;0.20;;;;;;;18.79;41.34;101817.06;5116668;27;20047;-38
2021/12/12 11:13:40;;;;;;;0.20;0.20;;;;;;;18.80;41.33;101815.97;5121959;27;20046;-38
2021/12/12 11:16:20;;;;;;;0.20;0.20;;;;;;;18.81;41.30;101823.16;5135848;27;20050;-37
2021/12/12 11:18:50;;;;;;;0.20;0.20;;;;;;;18.81;41.21;101823.16;5105483;27;20046;-37
2021/12/12 11:21:23;;;;;;;0.20;0.20;;;;;;;18.80;41.32;101819.56;5111995;27;20550;-38
2021/12/12 11:23:55;;;;;;;0.20;0.20;;;;;;;18.80;41.30;101818.72;5131936;27;20035;-38
2021/12/12 11:26:24;;;;;;;0.20;0.20;;;;;;;18.80;41.33;101821.50;5121788;27;20039;-38
2021/12/12 11:29:00;;;;;;;0.20;0.20;;;;;;;18.79;41.37;101820.66;5118764;27;20049;-38
2021/12/12 11:31:35;;;;;;;0.20;0.20;;;;;;;18.80;41.46;101815.97;5118028;27;20055;-39
2021/12/12 11:34:02;;;;;;;0.20;0.20;;;;;;;18.80;41.28;101811.28;5103925;27;20043;-39
2021/12/12 11:36:36;;;;;;;0.30;0.30;;;;;;;18.79;41.53;101820.66;5136439;27;20110;-38
2021/12/12 11:39:15;;;;;;;0.20;0.20;;;;;;;18.79;41.25;101819.84;5137138;27;20052;-37
2021/12/12 11:41:58;;;;;;;0.20;0.20;;;;;;;18.80;41.31;101824.25;5122032;27;20043;-38
2021/12/12 11:47:45;;;;;;;0.20;0.20;;;;;;;18.79;41.26;101819.84;5165816;27;20668;-38
2021/12/12 11:50:16;;;;;;;0.20;0.20;;;;;;;18.79;41.51;101815.16;5146171;27;20047;-38
2021/12/12 11:53:03;;;;;;;0.30;0.30;;;;;;;18.80;41.32;101821.50;5149695;27;20039;-38
2021/12/12 11:55:36;;;;;;;0.25;0.25;;;;;;;18.80;41.34;101824.25;5134921;27;20056;-37
2021/12/12 11:58:35;;;;;;;0.20;0.20;;;;;;;18.80;41.47;101822.31;5147976;27;20047;-36
2021/12/12 12:01:07;;;;;;;0.20;0.20;;;;;;;18.80;41.54;101825.09;5134634;27;20039;-36
2021/12/12 12:06:21;;;;;;;0.20;0.20;;;;;;;18.80;41.39;101827.00;5163425;27;20138;-37
2021/12/12 12:09:27;;;;;;;0.25;0.25;;;;;;;18.80;41.38;101830.59;5123494;27;20157;-36
2021/12/12 12:12:14;;;;;;;0.20;0.20;;;;;;;18.79;41.42;101822.59;5118121;27;20055;-37